sensor_id;sensor_type;location;lat;lon;timestamp;P1;durP1;ratioP1;P2;durP2;ratioP2
27618;SDS011;15039;50.830;4.730;2023-07-02T00:02:07;15.13;;;8.40;;
27618;SDS011;15039;50.830;4.730;2023-07-02T00:04:33;14.10;;;8.50;;
27618;SDS011;15039;50.830;4.730;2023-07-02T00:06:58;11.57;;;8.15;;
27618;SDS011;15039;50.830;4.730;2023-07-02T00:09:24;16.45;;;8.48;;
27618;SDS011;15039;50.830;4.730;2023-07-02T00:11:50;13.68;;;8.32;;
27618;SDS011;15039;50.830;4.730;2023-07-02T00:14:15;16.88;;;8.80;;
27618;SDS011;15039;50.830;4.730;2023-07-02T00:16:44;17.15;;;9.13;;
27618;SDS011;15039;50.830;4.730;2023-07-02T00:19:14;14.18;;;8.52;;
27618;SDS011;15039;50.830;4.730;2023-07-02T00:21:40;17.27;;;9.18;;
27618;SDS011;15039;50.830;4.730;2023-07-02T00:24:06;11.27;;;7.82;;
27618;SDS011;15039;50.830;4.730;2023-07-02T00:26:36;18.85;;;9.90;;
27618;SDS011;15039;50.830;4.730;2023-07-02T00:29:06;16.02;;;9.20;;
27618;SDS011;15039;50.830;4.730;2023-07-02T00:31:32;12.77;;;8.75;;
27618;SDS011;15039;50.830;4.730;2023-07-02T00:33:58;19.05;;;9.35;;
27618;SDS011;15039;50.830;4.730;2023-07-02T00:36:26;15.02;;;9.52;;
27618;SDS011;15039;50.830;4.730;2023-07-02T00:38:51;14.93;;;10.00;;
27618;SDS011;15039;50.830;4.730;2023-07-02T00:41:17;16.00;;;9.18;;
27618;SDS011;15039;50.830;4.730;2023-07-02T00:43:43;18.70;;;9.98;;
27618;SDS011;15039;50.830;4.730;2023-07-02T00:46:18;16.83;;;9.82;;
27618;SDS011;15039;50.830;4.730;2023-07-02T00:48:48;17.67;;;10.73;;
27618;SDS011;15039;50.830;4.730;2023-07-02T00:51:16;16.33;;;9.48;;
27618;SDS011;15039;50.830;4.730;2023-07-02T00:53:47;16.77;;;9.43;;
27618;SDS011;15039;50.830;4.730;2023-07-02T00:56:14;17.52;;;10.18;;
27618;SDS011;15039;50.830;4.730;2023-07-02T00:58:41;18.60;;;10.95;;
27618;SDS011;15039;50.830;4.730;2023-07-02T01:01:22;19.05;;;9.68;;
27618;SDS011;15039;50.830;4.730;2023-07-02T01:04:00;14.48;;;9.40;;
27618;SDS011;15039;50.830;4.730;2023-07-02T01:06:27;21.25;;;10.23;;
27618;SDS011;15039;50.830;4.730;2023-07-02T01:08:55;18.17;;;10.93;;
27618;SDS011;15039;50.830;4.730;2023-07-02T01:11:26;17.55;;;9.45;;
27618;SDS011;15039;50.830;4.730;2023-07-02T01:13:56;16.38;;;9.68;;
27618;SDS011;15039;50.830;4.730;2023-07-02T01:16:27;16.38;;;9.90;;
27618;SDS011;15039;50.830;4.730;2023-07-02T01:18:55;17.00;;;10.20;;
27618;SDS011;15039;50.830;4.730;2023-07-02T01:21:23;20.10;;;10.98;;
27618;SDS011;15039;50.830;4.730;2023-07-02T01:23:50;17.85;;;9.85;;
27618;SDS011;15039;50.830;4.730;2023-07-02T01:26:16;22.35;;;11.15;;
27618;SDS011;15039;50.830;4.730;2023-07-02T01:28:41;20.70;;;10.90;;
27618;SDS011;15039;50.830;4.730;2023-07-02T01:31:07;24.38;;;12.07;;
27618;SDS011;15039;50.830;4.730;2023-07-02T01:33:33;17.00;;;10.73;;
27618;SDS011;15039;50.830;4.730;2023-07-02T01:35:58;21.25;;;11.13;;
27618;SDS011;15039;50.830;4.730;2023-07-02T01:38:24;21.05;;;11.80;;
27618;SDS011;15039;50.830;4.730;2023-07-02T01:40:50;21.83;;;12.38;;
27618;SDS011;15039;50.830;4.730;2023-07-02T01:43:15;25.98;;;10.68;;
27618;SDS011;15039;50.830;4.730;2023-07-02T01:45:41;22.20;;;11.98;;
27618;SDS011;15039;50.830;4.730;2023-07-02T01:48:07;20.40;;;11.20;;
27618;SDS011;15039;50.830;4.730;2023-07-02T01:50:32;16.85;;;10.57;;
27618;SDS011;15039;50.830;4.730;2023-07-02T01:52:58;17.27;;;11.18;;
27618;SDS011;15039;50.830;4.730;2023-07-02T01:55:24;19.23;;;11.45;;
27618;SDS011;15039;50.830;4.730;2023-07-02T01:57:50;18.77;;;11.77;;
27618;SDS011;15039;50.830;4.730;2023-07-02T02:00:15;21.08;;;11.63;;
27618;SDS011;15039;50.830;4.730;2023-07-02T02:02:42;15.77;;;10.60;;
27618;SDS011;15039;50.830;4.730;2023-07-02T02:05:08;26.83;;;12.93;;
27618;SDS011;15039;50.830;4.730;2023-07-02T02:07:34;20.90;;;12.10;;
27618;SDS011;15039;50.830;4.730;2023-07-02T02:10:03;22.23;;;11.77;;
27618;SDS011;15039;50.830;4.730;2023-07-02T02:12:29;19.63;;;12.75;;
27618;SDS011;15039;50.830;4.730;2023-07-02T02:14:55;22.30;;;12.05;;
27618;SDS011;15039;50.830;4.730;2023-07-02T02:17:21;22.52;;;11.82;;
27618;SDS011;15039;50.830;4.730;2023-07-02T02:19:48;27.73;;;12.32;;
27618;SDS011;15039;50.830;4.730;2023-07-02T02:22:14;22.08;;;12.38;;
27618;SDS011;15039;50.830;4.730;2023-07-02T02:24:40;26.52;;;12.35;;
27618;SDS011;15039;50.830;4.730;2023-07-02T02:27:07;24.50;;;12.32;;
27618;SDS011;15039;50.830;4.730;2023-07-02T02:29:32;24.67;;;12.05;;
27618;SDS011;15039;50.830;4.730;2023-07-02T02:31:58;23.73;;;12.68;;
27618;SDS011;15039;50.830;4.730;2023-07-02T02:34:23;23.70;;;12.50;;
27618;SDS011;15039;50.830;4.730;2023-07-02T02:36:49;24.35;;;13.98;;
27618;SDS011;15039;50.830;4.730;2023-07-02T02:39:15;21.98;;;12.60;;
27618;SDS011;15039;50.830;4.730;2023-07-02T02:41:40;24.17;;;12.73;;
27618;SDS011;15039;50.830;4.730;2023-07-02T02:44:06;25.55;;;14.05;;
27618;SDS011;15039;50.830;4.730;2023-07-02T02:46:32;22.05;;;12.57;;
27618;SDS011;15039;50.830;4.730;2023-07-02T02:48:58;26.90;;;13.40;;
27618;SDS011;15039;50.830;4.730;2023-07-02T02:51:23;23.83;;;12.55;;
27618;SDS011;15039;50.830;4.730;2023-07-02T02:53:49;26.35;;;13.80;;
27618;SDS011;15039;50.830;4.730;2023-07-02T02:56:15;23.60;;;13.10;;
27618;SDS011;15039;50.830;4.730;2023-07-02T02:58:41;25.02;;;13.52;;
27618;SDS011;15039;50.830;4.730;2023-07-02T03:01:06;23.77;;;13.43;;
27618;SDS011;15039;50.830;4.730;2023-07-02T03:03:36;26.40;;;13.63;;
27618;SDS011;15039;50.830;4.730;2023-07-02T03:06:09;26.88;;;12.77;;
27618;SDS011;15039;50.830;4.730;2023-07-02T03:08:36;24.63;;;13.93;;
27618;SDS011;15039;50.830;4.730;2023-07-02T03:11:01;24.80;;;13.32;;
27618;SDS011;15039;50.830;4.730;2023-07-02T03:13:27;28.95;;;15.55;;
27618;SDS011;15039;50.830;4.730;2023-07-02T03:15:52;26.30;;;14.27;;
27618;SDS011;15039;50.830;4.730;2023-07-02T03:18:18;26.27;;;13.35;;
27618;SDS011;15039;50.830;4.730;2023-07-02T03:20:44;26.17;;;13.63;;
27618;SDS011;15039;50.830;4.730;2023-07-02T03:23:09;24.33;;;14.02;;
27618;SDS011;15039;50.830;4.730;2023-07-02T03:25:35;27.10;;;13.60;;
27618;SDS011;15039;50.830;4.730;2023-07-02T03:28:00;27.50;;;13.98;;
27618;SDS011;15039;50.830;4.730;2023-07-02T03:30:26;24.85;;;14.05;;
27618;SDS011;15039;50.830;4.730;2023-07-02T03:32:51;23.45;;;13.68;;
27618;SDS011;15039;50.830;4.730;2023-07-02T03:35:17;30.35;;;15.43;;
27618;SDS011;15039;50.830;4.730;2023-07-02T03:37:43;29.08;;;14.38;;
27618;SDS011;15039;50.830;4.730;2023-07-02T03:40:09;32.80;;;16.25;;
27618;SDS011;15039;50.830;4.730;2023-07-02T03:42:34;25.67;;;15.20;;
27618;SDS011;15039;50.830;4.730;2023-07-02T03:45:00;26.65;;;15.27;;
27618;SDS011;15039;50.830;4.730;2023-07-02T03:47:26;27.92;;;16.00;;
27618;SDS011;15039;50.830;4.730;2023-07-02T03:49:51;31.15;;;16.63;;
27618;SDS011;15039;50.830;4.730;2023-07-02T03:52:17;30.80;;;15.93;;
27618;SDS011;15039;50.830;4.730;2023-07-02T03:54:42;34.40;;;19.08;;
27618;SDS011;15039;50.830;4.730;2023-07-02T03:57:08;28.98;;;16.30;;
27618;SDS011;15039;50.830;4.730;2023-07-02T03:59:34;27.52;;;16.58;;
27618;SDS011;15039;50.830;4.730;2023-07-02T04:02:00;30.45;;;16.45;;
27618;SDS011;15039;50.830;4.730;2023-07-02T04:04:25;29.92;;;15.48;;
27618;SDS011;15039;50.830;4.730;2023-07-02T04:06:51;28.73;;;14.82;;
27618;SDS011;15039;50.830;4.730;2023-07-02T04:09:17;28.45;;;14.75;;
27618;SDS011;15039;50.830;4.730;2023-07-02T04:11:43;29.15;;;15.65;;
27618;SDS011;15039;50.830;4.730;2023-07-02T04:14:09;30.98;;;15.35;;
27618;SDS011;15039;50.830;4.730;2023-07-02T04:16:34;31.48;;;15.52;;
27618;SDS011;15039;50.830;4.730;2023-07-02T04:19:00;27.50;;;15.63;;
27618;SDS011;15039;50.830;4.730;2023-07-02T04:21:26;24.52;;;14.63;;
27618;SDS011;15039;50.830;4.730;2023-07-02T04:23:52;32.70;;;15.68;;
27618;SDS011;15039;50.830;4.730;2023-07-02T04:26:17;25.83;;;15.02;;
27618;SDS011;15039;50.830;4.730;2023-07-02T04:28:43;31.02;;;15.15;;
27618;SDS011;15039;50.830;4.730;2023-07-02T04:31:09;28.73;;;14.85;;
27618;SDS011;15039;50.830;4.730;2023-07-02T04:33:35;32.75;;;15.68;;
27618;SDS011;15039;50.830;4.730;2023-07-02T04:36:04;30.52;;;15.20;;
27618;SDS011;15039;50.830;4.730;2023-07-02T04:38:30;27.65;;;15.02;;
27618;SDS011;15039;50.830;4.730;2023-07-02T04:40:55;30.58;;;15.10;;
27618;SDS011;15039;50.830;4.730;2023-07-02T04:43:29;32.55;;;15.70;;
27618;SDS011;15039;50.830;4.730;2023-07-02T04:45:58;28.63;;;16.27;;
27618;SDS011;15039;50.830;4.730;2023-07-02T04:48:24;31.48;;;16.20;;
27618;SDS011;15039;50.830;4.730;2023-07-02T04:50:49;30.45;;;15.68;;
27618;SDS011;15039;50.830;4.730;2023-07-02T04:53:15;34.15;;;15.57;;
27618;SDS011;15039;50.830;4.730;2023-07-02T04:55:41;30.70;;;15.82;;
27618;SDS011;15039;50.830;4.730;2023-07-02T04:58:08;28.48;;;16.02;;
27618;SDS011;15039;50.830;4.730;2023-07-02T05:00:33;28.33;;;15.20;;
27618;SDS011;15039;50.830;4.730;2023-07-02T05:02:59;34.25;;;15.85;;
27618;SDS011;15039;50.830;4.730;2023-07-02T05:05:25;34.10;;;16.25;;
27618;SDS011;15039;50.830;4.730;2023-07-02T05:07:50;28.88;;;15.93;;
27618;SDS011;15039;50.830;4.730;2023-07-02T05:10:16;28.83;;;14.65;;
27618;SDS011;15039;50.830;4.730;2023-07-02T05:12:41;28.42;;;15.20;;
27618;SDS011;15039;50.830;4.730;2023-07-02T05:15:07;26.38;;;14.75;;
27618;SDS011;15039;50.830;4.730;2023-07-02T05:17:33;29.02;;;16.48;;
27618;SDS011;15039;50.830;4.730;2023-07-02T05:20:01;34.03;;;16.48;;
27618;SDS011;15039;50.830;4.730;2023-07-02T05:22:29;29.33;;;15.38;;
27618;SDS011;15039;50.830;4.730;2023-07-02T05:24:54;31.42;;;15.20;;
27618;SDS011;15039;50.830;4.730;2023-07-02T05:27:20;28.10;;;16.08;;
27618;SDS011;15039;50.830;4.730;2023-07-02T05:29:45;28.02;;;15.45;;
27618;SDS011;15039;50.830;4.730;2023-07-02T05:32:11;30.88;;;15.35;;
27618;SDS011;15039;50.830;4.730;2023-07-02T05:34:37;34.75;;;15.70;;
27618;SDS011;15039;50.830;4.730;2023-07-02T05:37:02;29.48;;;14.95;;
27618;SDS011;15039;50.830;4.730;2023-07-02T05:39:28;29.10;;;16.17;;
27618;SDS011;15039;50.830;4.730;2023-07-02T05:41:55;27.30;;;14.68;;
27618;SDS011;15039;50.830;4.730;2023-07-02T05:44:21;29.48;;;14.85;;
27618;SDS011;15039;50.830;4.730;2023-07-02T05:46:47;28.83;;;15.63;;
27618;SDS011;15039;50.830;4.730;2023-07-02T05:49:13;26.27;;;14.70;;
27618;SDS011;15039;50.830;4.730;2023-07-02T05:51:39;29.10;;;15.60;;
27618;SDS011;15039;50.830;4.730;2023-07-02T05:54:05;27.00;;;15.80;;
27618;SDS011;15039;50.830;4.730;2023-07-02T05:56:31;29.55;;;15.30;;
27618;SDS011;15039;50.830;4.730;2023-07-02T05:58:56;26.95;;;15.73;;
27618;SDS011;15039;50.830;4.730;2023-07-02T06:01:22;28.35;;;14.45;;
27618;SDS011;15039;50.830;4.730;2023-07-02T06:03:49;26.98;;;14.65;;
27618;SDS011;15039;50.830;4.730;2023-07-02T06:06:15;27.55;;;14.70;;
27618;SDS011;15039;50.830;4.730;2023-07-02T06:08:41;24.58;;;14.88;;
27618;SDS011;15039;50.830;4.730;2023-07-02T06:11:06;31.10;;;15.23;;
27618;SDS011;15039;50.830;4.730;2023-07-02T06:13:32;28.55;;;15.35;;
27618;SDS011;15039;50.830;4.730;2023-07-02T06:15:58;24.70;;;14.48;;
27618;SDS011;15039;50.830;4.730;2023-07-02T06:18:24;26.30;;;15.05;;
27618;SDS011;15039;50.830;4.730;2023-07-02T06:20:50;26.40;;;14.38;;
27618;SDS011;15039;50.830;4.730;2023-07-02T06:23:15;25.17;;;15.07;;
27618;SDS011;15039;50.830;4.730;2023-07-02T06:25:41;25.90;;;14.80;;
27618;SDS011;15039;50.830;4.730;2023-07-02T06:28:06;22.77;;;13.40;;
27618;SDS011;15039;50.830;4.730;2023-07-02T06:30:32;24.42;;;14.45;;
27618;SDS011;15039;50.830;4.730;2023-07-02T06:32:58;25.23;;;14.35;;
27618;SDS011;15039;50.830;4.730;2023-07-02T06:35:23;25.80;;;14.38;;
27618;SDS011;15039;50.830;4.730;2023-07-02T06:37:49;24.13;;;13.23;;
27618;SDS011;15039;50.830;4.730;2023-07-02T06:40:15;20.08;;;12.32;;
27618;SDS011;15039;50.830;4.730;2023-07-02T06:42:40;24.45;;;13.65;;
27618;SDS011;15039;50.830;4.730;2023-07-02T06:45:06;28.10;;;14.07;;
27618;SDS011;15039;50.830;4.730;2023-07-02T06:47:32;23.38;;;14.18;;
27618;SDS011;15039;50.830;4.730;2023-07-02T06:49:58;22.60;;;12.95;;
27618;SDS011;15039;50.830;4.730;2023-07-02T06:52:24;24.63;;;14.32;;
27618;SDS011;15039;50.830;4.730;2023-07-02T06:54:50;22.88;;;12.70;;
27618;SDS011;15039;50.830;4.730;2023-07-02T06:57:15;22.27;;;13.48;;
27618;SDS011;15039;50.830;4.730;2023-07-02T06:59:41;25.40;;;13.57;;
27618;SDS011;15039;50.830;4.730;2023-07-02T07:02:07;26.60;;;13.00;;
27618;SDS011;15039;50.830;4.730;2023-07-02T07:04:32;23.05;;;12.90;;
27618;SDS011;15039;50.830;4.730;2023-07-02T07:07:00;22.48;;;13.15;;
27618;SDS011;15039;50.830;4.730;2023-07-02T07:09:28;24.92;;;13.20;;
27618;SDS011;15039;50.830;4.730;2023-07-02T07:11:54;22.67;;;12.30;;
27618;SDS011;15039;50.830;4.730;2023-07-02T07:14:19;22.63;;;12.27;;
27618;SDS011;15039;50.830;4.730;2023-07-02T07:16:45;21.83;;;12.43;;
27618;SDS011;15039;50.830;4.730;2023-07-02T07:19:11;19.77;;;11.43;;
27618;SDS011;15039;50.830;4.730;2023-07-02T07:21:36;20.70;;;10.77;;
27618;SDS011;15039;50.830;4.730;2023-07-02T07:24:02;20.70;;;11.27;;
27618;SDS011;15039;50.830;4.730;2023-07-02T07:26:28;16.83;;;10.35;;
27618;SDS011;15039;50.830;4.730;2023-07-02T07:28:53;18.38;;;11.10;;
27618;SDS011;15039;50.830;4.730;2023-07-02T07:33:48;16.92;;;9.23;;
27618;SDS011;15039;50.830;4.730;2023-07-02T07:36:14;20.30;;;10.18;;
27618;SDS011;15039;50.830;4.730;2023-07-02T07:38:39;17.50;;;9.80;;
27618;SDS011;15039;50.830;4.730;2023-07-02T07:41:05;17.35;;;9.48;;
27618;SDS011;15039;50.830;4.730;2023-07-02T07:43:31;17.42;;;9.32;;
27618;SDS011;15039;50.830;4.730;2023-07-02T07:45:56;21.45;;;9.00;;
27618;SDS011;15039;50.830;4.730;2023-07-02T07:48:23;19.90;;;9.25;;
27618;SDS011;15039;50.830;4.730;2023-07-02T07:50:49;15.52;;;8.27;;
27618;SDS011;15039;50.830;4.730;2023-07-02T07:53:14;14.75;;;8.98;;
27618;SDS011;15039;50.830;4.730;2023-07-02T07:55:40;16.02;;;8.90;;
27618;SDS011;15039;50.830;4.730;2023-07-02T07:58:06;15.32;;;9.13;;
27618;SDS011;15039;50.830;4.730;2023-07-02T08:00:31;15.30;;;8.20;;
27618;SDS011;15039;50.830;4.730;2023-07-02T08:02:57;14.68;;;7.75;;
27618;SDS011;15039;50.830;4.730;2023-07-02T08:05:24;15.63;;;8.43;;
27618;SDS011;15039;50.830;4.730;2023-07-02T08:07:50;16.30;;;7.90;;
27618;SDS011;15039;50.830;4.730;2023-07-02T08:10:16;16.67;;;8.48;;
27618;SDS011;15039;50.830;4.730;2023-07-02T08:12:41;17.55;;;8.00;;
27618;SDS011;15039;50.830;4.730;2023-07-02T08:15:07;13.85;;;7.78;;
27618;SDS011;15039;50.830;4.730;2023-07-02T08:17:33;13.23;;;7.50;;
27618;SDS011;15039;50.830;4.730;2023-07-02T08:19:59;13.00;;;7.60;;
27618;SDS011;15039;50.830;4.730;2023-07-02T08:22:25;16.00;;;8.38;;
27618;SDS011;15039;50.830;4.730;2023-07-02T08:24:50;15.20;;;8.00;;
27618;SDS011;15039;50.830;4.730;2023-07-02T08:27:16;14.38;;;8.35;;
27618;SDS011;15039;50.830;4.730;2023-07-02T08:29:45;13.38;;;6.97;;
27618;SDS011;15039;50.830;4.730;2023-07-02T08:32:14;14.73;;;8.23;;
27618;SDS011;15039;50.830;4.730;2023-07-02T08:34:40;12.30;;;6.85;;
27618;SDS011;15039;50.830;4.730;2023-07-02T08:37:06;11.40;;;6.85;;
27618;SDS011;15039;50.830;4.730;2023-07-02T08:39:31;14.80;;;7.93;;
27618;SDS011;15039;50.830;4.730;2023-07-02T08:41:57;14.10;;;7.07;;
27618;SDS011;15039;50.830;4.730;2023-07-02T08:44:23;15.35;;;7.25;;
27618;SDS011;15039;50.830;4.730;2023-07-02T08:46:49;16.60;;;7.32;;
27618;SDS011;15039;50.830;4.730;2023-07-02T08:49:21;12.40;;;7.35;;
27618;SDS011;15039;50.830;4.730;2023-07-02T08:51:46;13.20;;;7.07;;
27618;SDS011;15039;50.830;4.730;2023-07-02T08:54:13;11.85;;;7.47;;
27618;SDS011;15039;50.830;4.730;2023-07-02T08:56:39;11.95;;;6.80;;
27618;SDS011;15039;50.830;4.730;2023-07-02T08:59:14;11.88;;;6.65;;
27618;SDS011;15039;50.830;4.730;2023-07-02T09:01:46;15.60;;;7.68;;
27618;SDS011;15039;50.830;4.730;2023-07-02T09:04:27;14.00;;;7.47;;
27618;SDS011;15039;50.830;4.730;2023-07-02T09:09:30;12.65;;;6.82;;
27618;SDS011;15039;50.830;4.730;2023-07-02T09:11:55;14.35;;;7.43;;
27618;SDS011;15039;50.830;4.730;2023-07-02T09:14:25;13.77;;;7.63;;
27618;SDS011;15039;50.830;4.730;2023-07-02T09:17:01;15.80;;;7.70;;
27618;SDS011;15039;50.830;4.730;2023-07-02T09:19:28;16.60;;;7.68;;
27618;SDS011;15039;50.830;4.730;2023-07-02T09:21:56;15.05;;;6.85;;
27618;SDS011;15039;50.830;4.730;2023-07-02T09:24:26;11.93;;;6.97;;
27618;SDS011;15039;50.830;4.730;2023-07-02T09:27:00;13.93;;;6.75;;
27618;SDS011;15039;50.830;4.730;2023-07-02T09:29:27;13.93;;;7.07;;
27618;SDS011;15039;50.830;4.730;2023-07-02T09:31:54;13.57;;;7.30;;
27618;SDS011;15039;50.830;4.730;2023-07-02T09:34:26;14.43;;;7.03;;
27618;SDS011;15039;50.830;4.730;2023-07-02T09:36:56;14.32;;;8.50;;
27618;SDS011;15039;50.830;4.730;2023-07-02T09:39:28;17.38;;;7.85;;
27618;SDS011;15039;50.830;4.730;2023-07-02T09:41:56;13.55;;;7.03;;
27618;SDS011;15039;50.830;4.730;2023-07-02T09:44:25;12.57;;;7.30;;
27618;SDS011;15039;50.830;4.730;2023-07-02T09:46:58;12.77;;;7.60;;
27618;SDS011;15039;50.830;4.730;2023-07-02T09:49:34;13.40;;;6.93;;
27618;SDS011;15039;50.830;4.730;2023-07-02T09:52:01;13.23;;;6.90;;
27618;SDS011;15039;50.830;4.730;2023-07-02T09:54:29;15.10;;;7.63;;
27618;SDS011;15039;50.830;4.730;2023-07-02T09:56:55;12.00;;;6.47;;
27618;SDS011;15039;50.830;4.730;2023-07-02T09:59:22;15.02;;;7.95;;
27618;SDS011;15039;50.830;4.730;2023-07-02T10:01:49;12.25;;;7.10;;
27618;SDS011;15039;50.830;4.730;2023-07-02T10:04:15;12.38;;;7.20;;
27618;SDS011;15039;50.830;4.730;2023-07-02T10:09:19;16.50;;;8.23;;
27618;SDS011;15039;50.830;4.730;2023-07-02T10:11:45;15.45;;;7.53;;
27618;SDS011;15039;50.830;4.730;2023-07-02T10:14:11;14.98;;;6.85;;
27618;SDS011;15039;50.830;4.730;2023-07-02T10:16:50;15.13;;;7.78;;
27618;SDS011;15039;50.830;4.730;2023-07-02T10:19:16;16.48;;;7.65;;
27618;SDS011;15039;50.830;4.730;2023-07-02T10:21:42;14.45;;;6.50;;
27618;SDS011;15039;50.830;4.730;2023-07-02T10:24:11;11.60;;;6.78;;
27618;SDS011;15039;50.830;4.730;2023-07-02T10:26:38;13.50;;;7.15;;
27618;SDS011;15039;50.830;4.730;2023-07-02T10:29:04;15.43;;;7.15;;
27618;SDS011;15039;50.830;4.730;2023-07-02T10:31:31;14.70;;;7.03;;
27618;SDS011;15039;50.830;4.730;2023-07-02T10:33:57;16.48;;;7.28;;
27618;SDS011;15039;50.830;4.730;2023-07-02T10:36:23;11.75;;;7.20;;
27618;SDS011;15039;50.830;4.730;2023-07-02T10:38:50;14.88;;;6.75;;
27618;SDS011;15039;50.830;4.730;2023-07-02T10:41:23;12.93;;;6.80;;
27618;SDS011;15039;50.830;4.730;2023-07-02T10:43:50;17.80;;;7.28;;
27618;SDS011;15039;50.830;4.730;2023-07-02T10:46:20;13.77;;;7.32;;
27618;SDS011;15039;50.830;4.730;2023-07-02T10:48:54;14.70;;;6.65;;
27618;SDS011;15039;50.830;4.730;2023-07-02T10:51:20;14.77;;;6.80;;
27618;SDS011;15039;50.830;4.730;2023-07-02T10:53:56;12.43;;;7.38;;
27618;SDS011;15039;50.830;4.730;2023-07-02T10:56:28;11.63;;;7.25;;
27618;SDS011;15039;50.830;4.730;2023-07-02T10:58:54;15.10;;;6.80;;
27618;SDS011;15039;50.830;4.730;2023-07-02T11:04:00;15.88;;;6.60;;
27618;SDS011;15039;50.830;4.730;2023-07-02T11:06:27;14.45;;;6.47;;
27618;SDS011;15039;50.830;4.730;2023-07-02T11:08:53;13.98;;;6.93;;
27618;SDS011;15039;50.830;4.730;2023-07-02T11:11:22;17.17;;;6.70;;
27618;SDS011;15039;50.830;4.730;2023-07-02T11:13:51;18.55;;;7.57;;
27618;SDS011;15039;50.830;4.730;2023-07-02T11:16:24;13.75;;;7.28;;
27618;SDS011;15039;50.830;4.730;2023-07-02T11:19:09;12.95;;;6.43;;
27618;SDS011;15039;50.830;4.730;2023-07-02T11:21:35;11.43;;;6.50;;
27618;SDS011;15039;50.830;4.730;2023-07-02T11:24:08;14.70;;;6.97;;
27618;SDS011;15039;50.830;4.730;2023-07-02T11:26:37;14.82;;;6.65;;
27618;SDS011;15039;50.830;4.730;2023-07-02T11:29:03;14.32;;;7.28;;
27618;SDS011;15039;50.830;4.730;2023-07-02T11:31:33;13.85;;;7.22;;
27618;SDS011;15039;50.830;4.730;2023-07-02T11:33:58;16.67;;;7.40;;
27618;SDS011;15039;50.830;4.730;2023-07-02T11:36:24;14.05;;;6.90;;
27618;SDS011;15039;50.830;4.730;2023-07-02T11:38:50;12.73;;;6.97;;
27618;SDS011;15039;50.830;4.730;2023-07-02T11:41:16;10.35;;;6.43;;
27618;SDS011;15039;50.830;4.730;2023-07-02T11:43:43;12.75;;;6.97;;
27618;SDS011;15039;50.830;4.730;2023-07-02T11:46:08;16.52;;;7.68;;
27618;SDS011;15039;50.830;4.730;2023-07-02T11:48:34;14.30;;;7.07;;
27618;SDS011;15039;50.830;4.730;2023-07-02T11:50:59;14.18;;;7.20;;
27618;SDS011;15039;50.830;4.730;2023-07-02T11:53:25;12.88;;;6.53;;
27618;SDS011;15039;50.830;4.730;2023-07-02T11:55:51;14.50;;;6.53;;
27618;SDS011;15039;50.830;4.730;2023-07-02T11:58:16;12.40;;;5.70;;
27618;SDS011;15039;50.830;4.730;2023-07-02T12:00:42;15.23;;;6.18;;
27618;SDS011;15039;50.830;4.730;2023-07-02T12:03:08;12.23;;;6.15;;
27618;SDS011;15039;50.830;4.730;2023-07-02T12:05:33;13.45;;;6.53;;
27618;SDS011;15039;50.830;4.730;2023-07-02T12:07:59;13.30;;;7.20;;
27618;SDS011;15039;50.830;4.730;2023-07-02T12:10:26;13.65;;;6.88;;
27618;SDS011;15039;50.830;4.730;2023-07-02T12:12:52;11.20;;;6.43;;
27618;SDS011;15039;50.830;4.730;2023-07-02T12:15:17;12.98;;;6.80;;
27618;SDS011;15039;50.830;4.730;2023-07-02T12:17:43;14.02;;;6.40;;
27618;SDS011;15039;50.830;4.730;2023-07-02T12:20:09;12.35;;;6.45;;
27618;SDS011;15039;50.830;4.730;2023-07-02T12:22:35;13.65;;;6.30;;
27618;SDS011;15039;50.830;4.730;2023-07-02T12:25:00;11.35;;;6.20;;
27618;SDS011;15039;50.830;4.730;2023-07-02T12:27:26;11.45;;;6.05;;
27618;SDS011;15039;50.830;4.730;2023-07-02T12:29:52;12.68;;;6.45;;
27618;SDS011;15039;50.830;4.730;2023-07-02T12:32:18;13.18;;;6.55;;
27618;SDS011;15039;50.830;4.730;2023-07-02T12:34:43;11.43;;;6.30;;
27618;SDS011;15039;50.830;4.730;2023-07-02T12:37:09;13.32;;;6.78;;
27618;SDS011;15039;50.830;4.730;2023-07-02T12:39:34;11.55;;;6.30;;
27618;SDS011;15039;50.830;4.730;2023-07-02T12:42:00;16.52;;;6.60;;
27618;SDS011;15039;50.830;4.730;2023-07-02T12:44:26;11.25;;;5.88;;
27618;SDS011;15039;50.830;4.730;2023-07-02T12:46:51;11.60;;;5.90;;
27618;SDS011;15039;50.830;4.730;2023-07-02T12:49:17;13.70;;;6.13;;
27618;SDS011;15039;50.830;4.730;2023-07-02T12:51:42;10.70;;;5.32;;
27618;SDS011;15039;50.830;4.730;2023-07-02T12:54:08;14.40;;;7.70;;
27618;SDS011;15039;50.830;4.730;2023-07-02T12:56:34;16.30;;;6.35;;
27618;SDS011;15039;50.830;4.730;2023-07-02T12:59:01;15.25;;;6.10;;
27618;SDS011;15039;50.830;4.730;2023-07-02T13:01:27;13.23;;;6.72;;
27618;SDS011;15039;50.830;4.730;2023-07-02T13:03:53;10.48;;;6.32;;
27618;SDS011;15039;50.830;4.730;2023-07-02T13:06:18;9.93;;;6.15;;
27618;SDS011;15039;50.830;4.730;2023-07-02T13:08:44;13.88;;;6.15;;
27618;SDS011;15039;50.830;4.730;2023-07-02T13:11:09;14.40;;;6.43;;
27618;SDS011;15039;50.830;4.730;2023-07-02T13:13:35;14.18;;;6.53;;
27618;SDS011;15039;50.830;4.730;2023-07-02T13:16:01;13.38;;;6.80;;
27618;SDS011;15039;50.830;4.730;2023-07-02T13:18:27;12.88;;;7.10;;
27618;SDS011;15039;50.830;4.730;2023-07-02T13:20:53;12.25;;;6.80;;
27618;SDS011;15039;50.830;4.730;2023-07-02T13:23:18;13.07;;;6.65;;
27618;SDS011;15039;50.830;4.730;2023-07-02T13:25:44;13.40;;;6.30;;
27618;SDS011;15039;50.830;4.730;2023-07-02T13:28:10;13.73;;;6.18;;
27618;SDS011;15039;50.830;4.730;2023-07-02T13:30:35;12.85;;;5.70;;
27618;SDS011;15039;50.830;4.730;2023-07-02T13:33:01;13.18;;;6.20;;
27618;SDS011;15039;50.830;4.730;2023-07-02T13:35:27;10.70;;;5.75;;
27618;SDS011;15039;50.830;4.730;2023-07-02T13:37:52;12.13;;;5.85;;
27618;SDS011;15039;50.830;4.730;2023-07-02T13:40:18;11.43;;;5.65;;
27618;SDS011;15039;50.830;4.730;2023-07-02T13:42:43;11.65;;;5.72;;
27618;SDS011;15039;50.830;4.730;2023-07-02T13:45:10;14.43;;;6.50;;
27618;SDS011;15039;50.830;4.730;2023-07-02T13:47:36;13.45;;;6.65;;
27618;SDS011;15039;50.830;4.730;2023-07-02T13:50:02;14.13;;;6.60;;
27618;SDS011;15039;50.830;4.730;2023-07-02T13:52:28;11.80;;;6.32;;
27618;SDS011;15039;50.830;4.730;2023-07-02T13:54:54;9.80;;;5.38;;
27618;SDS011;15039;50.830;4.730;2023-07-02T13:57:20;10.32;;;5.95;;
27618;SDS011;15039;50.830;4.730;2023-07-02T13:59:45;12.90;;;5.78;;
27618;SDS011;15039;50.830;4.730;2023-07-02T14:02:11;12.55;;;6.18;;
27618;SDS011;15039;50.830;4.730;2023-07-02T14:04:37;11.75;;;5.80;;
27618;SDS011;15039;50.830;4.730;2023-07-02T14:07:03;13.32;;;5.82;;
27618;SDS011;15039;50.830;4.730;2023-07-02T14:09:29;11.95;;;5.95;;
27618;SDS011;15039;50.830;4.730;2023-07-02T14:11:55;10.90;;;5.63;;
27618;SDS011;15039;50.830;4.730;2023-07-02T14:14:20;13.77;;;6.55;;
27618;SDS011;15039;50.830;4.730;2023-07-02T14:16:46;8.35;;;5.65;;
27618;SDS011;15039;50.830;4.730;2023-07-02T14:19:11;12.15;;;5.68;;
27618;SDS011;15039;50.830;4.730;2023-07-02T14:21:37;8.82;;;5.25;;
27618;SDS011;15039;50.830;4.730;2023-07-02T14:24:03;11.88;;;5.80;;
27618;SDS011;15039;50.830;4.730;2023-07-02T14:26:29;12.52;;;6.00;;
27618;SDS011;15039;50.830;4.730;2023-07-02T14:28:55;10.77;;;5.60;;
27618;SDS011;15039;50.830;4.730;2023-07-02T14:31:23;11.88;;;5.50;;
27618;SDS011;15039;50.830;4.730;2023-07-02T14:33:48;13.57;;;6.00;;
27618;SDS011;15039;50.830;4.730;2023-07-02T14:36:14;12.95;;;6.28;;